Indianapolis/Eagle Creek Airpark, Indiana
Current Conditions -  °F | °C
As of 4:53 PM on Thursday 23 Oct 2014 (Local Time) from KEYE Reporting Station
Clear Clear  
Wind Chill: 57°   Ceiling: Unl
Heat Index: 57°   Visibility: 10mi
Dew Point: 38°   Wind: 0mph
Humidity: 49%   Direction: NA
Pressure: 30.14"   Gusts: NA
Location:  39.83°N, 86.3°W
Report Text: KEYE 232053Z AUTO 00000KT 10SM CLR 14/03 A3014 RMK AO2 SLP208 T01390033 56018
Loading
Personal Weather Stations






























Interactive Weather Map New forecast layout! Learn more

10-Day Weather Forecast

Advertisements
Track Severe Weather on mobile